Flight Track Log - Related Links

Times and Time Zones

All times are in EDT time to prevent confusion due to time zone crossing. See the ASQ6115 flight status page for this flight to view local times or setup timezone preferences in your user account.

Time Position Orientation Groundspeed Altitude Reporting Facility
EDT Latitude Longitude Course Direction KTS MPH feet Rate Location/Type
Mon 11:14:35 AM 36.1500 -86.7833 270° West 208 239 3,200  Level Nashville TRACON
Mon 11:15:29 AM 36.1500 -86.8500 270° West 270 311 4,600 1,895 Climbing Nashville TRACON
Mon 11:16:00 AM 35.8794 -87.0673 253° West  Level Estimated
Mon 11:16:29 AM 36.1333 -86.9500 258° West 282 325 6,800  Level Nashville TRACON
Mon 11:17:00 AM 35.8180 -87.1642 270° West  Level Estimated
Mon 11:17:51 AM 36.1153 -87.0836 261° West 292 336 9,500  Level Memphis Center
Mon 11:18:00 AM 35.7565 -87.2610 255° West  Level Estimated
Mon 11:18:51 AM 36.1014 -87.1844 260° West 292 336 10,900  Level Memphis Center
Mon 11:19:00 AM 35.7909 -87.3764 290° West  Level FlightAware Approximate
Mon 11:19:51 AM 36.0831 -87.2906 258° West 312 359 11,700  Level Memphis Center
Mon 11:20:51 AM 36.0589 -87.4094 256° West 351 404 12,600 900 Climbing Memphis Center
Mon 11:21:51 AM 36.0364 -87.5156 255° West 356 410 13,500 950 Climbing Memphis Center
Mon 11:22:51 AM 36.0119 -87.6369 256° West 362 417 14,500 950 Climbing Memphis Center
Mon 11:23:51 AM 35.9875 -87.7558 256° West 362 417 15,400 950 Climbing Memphis Center
Mon 11:24:51 AM 35.9608 -87.8797 255° West 362 417 16,400 1,000 Climbing Memphis Center
Mon 11:25:51 AM 35.9361 -88.0011 256° West 362 417 17,400 950 Climbing Memphis Center
Mon 11:26:51 AM 35.9072 -88.1350 255° West 362 417 18,300 900 Climbing Memphis Center
Mon 11:27:51 AM 35.8883 -88.2458 258° West 362 417 19,200 950 Climbing Memphis Center
Mon 11:28:51 AM 35.8381 -88.3597 241° Southwest 362 417 20,200 1,000 Climbing Memphis Center
Mon 11:29:51 AM 35.7814 -88.4711 238° Southwest 377 434 21,200 1,000 Climbing Memphis Center
Mon 11:30:51 AM 35.7228 -88.5900 239° Southwest 383 441 22,200 1,000 Climbing Memphis Center
Mon 11:31:51 AM 35.6658 -88.7036 238° Southwest 388 447 23,200 950 Climbing Memphis Center
Mon 11:32:51 AM 35.6192 -88.8042 240° Southwest 388 447 24,100 950 Climbing Memphis Center
Mon 11:33:51 AM 35.5581 -88.9253 238° Southwest 382 440 25,100 1,000 Climbing Memphis Center
Mon 11:34:51 AM 35.5050 -89.0308 238° Southwest 382 440 26,100 1,000 Climbing Memphis Center
Mon 11:35:51 AM 35.4519 -89.1361 238° Southwest 376 433 27,100 1,000 Climbing Memphis Center
Mon 11:36:51 AM 35.3986 -89.2414 238° Southwest 369 425 28,100 950 Climbing Memphis Center
Mon 11:37:51 AM 35.3453 -89.3464 238° Southwest 369 425 29,000 950 Climbing Memphis Center
Mon 11:38:51 AM 35.2919 -89.4489 238° Southwest 369 425 30,000 1,000 Climbing Memphis Center
Mon 11:39:51 AM 35.2406 -89.5511 238° Southwest 369 425 31,000 1,000 Climbing Memphis Center
Mon 11:40:51 AM 35.1908 -89.6508 239° Southwest 363 418 32,000 950 Climbing Memphis Center
Mon 11:41:51 AM 35.1394 -89.7503 238° Southwest 358 412 32,900 950 Climbing Memphis Center
Mon 11:42:51 AM 35.0897 -89.8494 239° Southwest 353 406 33,900 550 Climbing Memphis Center
Mon 11:43:51 AM 35.0381 -89.9514 238° Southwest 353 406 34,000 50 Climbing Memphis Center
Mon 11:44:51 AM 35.0069 -90.0681 252° West 358 412 34,000  Level Memphis Center
Mon 11:45:51 AM 34.9883 -90.1922 260° West 366 421 34,000  Level Memphis Center
Mon 11:46:51 AM 34.9697 -90.3242 260° West 379 436 34,000  Level Memphis Center
Mon 11:47:51 AM 34.9511 -90.4408 259° West 394 453 34,000  Level Memphis Center
Mon 11:48:51 AM 34.9300 -90.5775 259° West 399 459 34,000 -100 Level Memphis Center
Mon 11:49:51 AM 34.9108 -90.7117 260° West 405 466 33,800  Descending Memphis Center
Mon 11:50:51 AM 34.8875 -90.8483 258° West 410 472 34,000 100 Climbing Memphis Center
Mon 11:51:51 AM 34.8703 -90.9822 261° West 410 472 34,000 -350 Level Memphis Center
Mon 11:52:51 AM 34.8464 -91.1164 258° West 410 472 33,300 -900 Descending Memphis Center
Mon 11:53:51 AM 34.8247 -91.2500 259° West 410 472 32,200 -650 Descending Memphis Center
Mon 11:54:51 AM 34.7861 -91.3836 251° West 410 472 32,000 -100 Descending Memphis Center
Mon 11:55:51 AM 34.6875 -91.4558 211° Southwest 394 453 32,000  Level Memphis Center
Mon 11:56:51 AM 34.5786 -91.5050 200° South 408 470 32,000  Level Memphis Center
Mon 11:57:51 AM 34.4633 -91.5536 199° South 419 482 32,000  Level Memphis Center
Mon 11:58:51 AM 34.3544 -91.6050 201° Southwest 427 491 32,000  Level Memphis Center
Mon 11:59:51 AM 34.2392 -91.6561 200° South 437 503 32,000  Level Memphis Center
Mon 12:00:51 PM 34.1300 -91.7097 202° Southwest 430 495 32,000  Level Memphis Center
Mon 12:01:51 PM 34.0231 -91.7606 202° Southwest 425 489 32,000  Level Memphis Center
Mon 12:03:29 PM 33.8431 -91.8422 201° Southwest 431 496 32,000  Level Fort Worth Center
Mon 12:04:29 PM 33.7325 -91.8917 200° South 431 496 32,000  Level Fort Worth Center
Mon 12:05:29 PM 33.6200 -91.9436 201° Southwest 431 496 32,000  Level Fort Worth Center
Mon 12:06:29 PM 33.5075 -91.9931 200° South 431 496 32,000  Level Fort Worth Center
Mon 12:07:29 PM 33.3947 -92.0422 200° South 436 502 32,000  Level Fort Worth Center
Mon 12:08:29 PM 33.2822 -92.0936 201° Southwest 436 502 32,000  Level Fort Worth Center
Mon 12:09:29 PM 33.1717 -92.1425 200° South 441 507 32,000  Level Fort Worth Center
Mon 12:10:29 PM 33.0589 -92.1939 201° Southwest 441 507 32,000  Level Fort Worth Center
Mon 12:11:29 PM 32.9422 -92.2453 200° South 441 507 32,000  Level Fort Worth Center
Mon 12:12:29 PM 32.8314 -92.2936 200° South 441 507 32,000  Level Fort Worth Center
Mon 12:13:29 PM 32.7167 -92.3469 201° Southwest 441 507 32,000  Level Fort Worth Center
Mon 12:15:05 PM 32.5456 -92.4239 201° Southwest 436 502 32,000  Level Houston Center
Mon 12:16:07 PM 32.4328 -92.4764 201° Southwest 435 501 32,000  Level Houston Center
Mon 12:17:09 PM 32.3181 -92.5253 200° South 438 504 32,000  Level Houston Center
Mon 12:18:11 PM 32.1814 -92.5861 201° Southwest 438 504 32,000  Level Houston Center
Mon 12:19:14 PM 32.0675 -92.6372 201° Southwest 439 505 32,000  Level Houston Center
Mon 12:20:16 PM 31.9569 -92.6939 204° Southwest 436 502 32,000  Level Houston Center
Mon 12:21:18 PM 31.8658 -92.7833 220° Southwest 428 493 32,000  Level Houston Center
Mon 12:22:20 PM 31.7744 -92.8706 219° Southwest 426 490 32,000  Level Houston Center
Mon 12:23:22 PM 31.6825 -92.9594 219° Southwest 428 493 32,000  Level Houston Center
Mon 12:24:24 PM 31.5733 -93.0658 220° Southwest 428 493 32,000  Level Houston Center
Mon 12:25:26 PM 31.4803 -93.1536 219° Southwest 429 494 32,000  Level Houston Center
Mon 12:26:28 PM 31.3886 -93.2417 219° Southwest 430 495 32,000  Level Houston Center
Mon 12:27:30 PM 31.2856 -93.3394 219° Southwest 428 493 32,000  Level Houston Center
Mon 12:28:32 PM 31.2036 -93.4172 219° Southwest 428 493 32,000  Level Houston Center
Mon 12:29:35 PM 31.0936 -93.5231 219° Southwest 429 494 32,000 -336 Level Houston Center
Mon 12:30:37 PM 31.0006 -93.6097 219° Southwest 429 494 31,300 -1,403 Descending Houston Center
Mon 12:31:39 PM 30.9081 -93.6978 219° Southwest 431 496 29,100 -2,226 Descending Houston Center
Mon 12:32:41 PM 30.8150 -93.7858 219° Southwest 432 497 26,700 -2,323 Descending Houston Center
Mon 12:33:43 PM 30.7194 -93.8756 219° Southwest 440 506 24,300 -2,516 Descending Houston Center
Mon 12:34:45 PM 30.6042 -93.9850 219° Southwest 448 516 21,500 -2,419 Descending Houston Center
Mon 12:35:47 PM 30.5106 -94.0717 219° Southwest 437 503 19,300 -2,174 Descending Houston Center
Mon 12:35:54 PM 30.4983 -94.0847 223° Southwest 435 501 19,000 -2,591 Descending Houston Center
Mon 12:36:31 PM 30.4386 -94.1389 218° Southwest 427 491 17,400 -2,291 Descending Houston Center
Mon 12:36:49 PM 30.4194 -94.1578 220° Southwest 427 491 16,900 -2,361 Descending Houston Center
Mon 12:37:32 PM 30.3464 -94.2264 219° Southwest 409 471 15,000 -2,226 Descending Houston Center
Mon 12:37:51 PM 30.3325 -94.2383 217° Southwest 406 467 14,600 -2,250 Descending Houston Center
Mon 12:38:28 PM 30.2711 -94.2944 218° Southwest 370 426 12,900 -2,032 Descending Houston Center
Mon 12:38:53 PM 30.2528 -94.3133 222° Southwest 381 438 12,500 -885 Descending Houston Center
Mon 12:39:29 PM 30.2014 -94.3739 226° Southwest 345 397 12,000 -571 Descending Houston Center
Mon 12:39:56 PM 30.1900 -94.4208 254° West 353 406 11,900  Descending Houston Center
Mon 12:40:31 PM 30.1769 -94.4883 257° West 353 406 12,000 97 Climbing Houston Center
Mon 12:40:58 PM 30.1692 -94.5353 259° West 351 404 12,000  Level Houston Center
Mon 12:41:38 PM 30.1536 -94.6169 258° West 364 419 12,000  Level Houston Center
Mon 12:42:00 PM 30.1486 -94.6483 260° West 357 411 12,000  Level Houston Center
Mon 12:42:33 PM 30.1361 -94.7183 258° West 360 414 12,000  Level Houston Center
Mon 12:43:02 PM 30.1303 -94.7617 261° West 360 414 12,000 -484 Level Houston Center
Mon 12:43:35 PM 30.1175 -94.8319 258° West 337 388 11,500 -968 Descending Houston Center
Mon 12:44:04 PM 30.1119 -94.8694 260° West 353 406 11,000 -1,300 Descending Houston Center
Mon 12:44:35 PM 30.1061 -94.9322 264° West 297 342 10,200 -1,161 Descending Houston Center
Mon 12:45:06 PM 30.1058 -94.9625 269° West 310 357 9,800 -1,179 Descending Houston Center
Mon 12:45:31 PM 30.1058 -95.0194 270° West 297 342 9,100 -1,355 Descending Houston Center
Mon 12:46:08 PM 30.1069 -95.0750 271° West 298 343 8,400 -1,082 Descending Houston Center
Mon 12:46:32 PM 30.1064 -95.1136 269° West 295 339 8,000 -968 Descending Houston Center
Mon 12:47:10 PM 30.1081 -95.1667 272° West 290 334 7,400 -1,065 Descending Houston Center
Mon 12:47:34 PM 30.1067 -95.2078 268° West 279 321 6,900 -1,258 Descending Houston Center
Mon 12:48:12 PM 30.1078 -95.2561 272° West 285 328 6,100 -806 Descending Houston Center
Mon 12:48:41 PM 30.1069 -95.3019 269° West 253 291 6,000 -95 Descending Houston Center
Mon 12:49:15 PM 30.1069 -95.3364 270° West 265 305 6,000  Level Houston Center
Mon 12:49:43 PM 30.1075 -95.3767 271° West 232 267 6,000 -100 Level Houston Center
Mon 12:50:15 PM 30.1078 -95.4075 271° West 237 273 5,900 -900 Descending Houston Center
Mon 12:50:43 PM 30.1056 -95.4469 266° West 205 236 5,100 -1,258 Descending Houston Center
Mon 12:51:17 PM 30.1069 -95.4714 274° West 212 244 4,600 -1,393 Descending Houston Center
Mon 12:51:39 PM 30.0961 -95.5061 250° West 217 250 3,800 -1,355 Descending Houston Center
Mon 12:52:19 PM 30.0597 -95.5064 180° South 214 246 3,200 -984 Descending Houston Center
Mon 12:52:40 PM 30.0411 -95.5006 165° South 183 211 2,800 -1,161 Descending Houston Center
Mon 12:53:21 PM 30.0156 -95.4819 148° Southeast 190 219 2,000 -985 Descending Houston Center
Mon 12:53:47 PM 30.0058 -95.4589 116° Southeast 145 167 1,700 -581 Descending Houston Center
Mon 12:54:23 PM 30.0061 -95.4361 89° East 160 184 1,400 -689 Descending Houston Center
Mon 12:54:48 PM 30.0058 -95.4131 91° East 143 165 1,000 -774 Descending Houston Center
Mon 12:55:25 PM 30.0075 -95.3925 85° East 145 167 600 -643 Descending Houston Center
Mon 12:55:44 PM 30.0064 -95.3719 94° East 138 159 400 -194 Descending Houston Center
Mon 12:56:27 PM 30.0069 -95.3503 88° East 143 165 400  Level Houston Center

Login

Don't have an account? Register now (free) for customized features, flight alerts, and more!